sensor_id;sensor_type;location;lat;lon;timestamp;pressure;altitude;pressure_sealevel;temperature;humidity
5380;BME280;2713;42.680;23.310;2022-10-31T00:00:13;95552.09;;;17.00;49.43
5380;BME280;2713;42.680;23.310;2022-10-31T00:02:41;95544.47;;;16.92;49.60
5380;BME280;2713;42.680;23.310;2022-10-31T00:05:08;95541.44;;;16.88;50.09
5380;BME280;2713;42.680;23.310;2022-10-31T00:07:35;95541.81;;;16.85;49.98
5380;BME280;2713;42.680;23.310;2022-10-31T00:10:04;95545.28;;;16.72;50.29
5380;BME280;2713;42.680;23.310;2022-10-31T00:12:31;95542.25;;;16.76;50.30
5380;BME280;2713;42.680;23.310;2022-10-31T00:14:58;95533.94;;;16.85;50.28
5380;BME280;2713;42.680;23.310;2022-10-31T00:17:25;95539.44;;;16.70;50.67
5380;BME280;2713;42.680;23.310;2022-10-31T00:19:52;95540.03;;;16.72;50.53
5380;BME280;2713;42.680;23.310;2022-10-31T00:22:19;95546.91;;;16.73;50.71
5380;BME280;2713;42.680;23.310;2022-10-31T00:24:45;95539.88;;;16.67;50.82
5380;BME280;2713;42.680;23.310;2022-10-31T00:27:14;95538.22;;;16.73;50.73
5380;BME280;2713;42.680;23.310;2022-10-31T00:29:40;95531.97;;;16.54;51.25
5380;BME280;2713;42.680;23.310;2022-10-31T00:32:07;95534.41;;;16.56;51.58
5380;BME280;2713;42.680;23.310;2022-10-31T00:34:34;95538.84;;;16.68;51.23
5380;BME280;2713;42.680;23.310;2022-10-31T00:37:01;95532.00;;;16.61;51.43
5380;BME280;2713;42.680;23.310;2022-10-31T00:39:28;95534.41;;;16.69;51.37
5380;BME280;2713;42.680;23.310;2022-10-31T00:41:55;95523.69;;;16.70;51.55
5380;BME280;2713;42.680;23.310;2022-10-31T00:44:23;95523.50;;;16.65;51.57
5380;BME280;2713;42.680;23.310;2022-10-31T00:46:50;95523.47;;;16.79;51.01
5380;BME280;2713;42.680;23.310;2022-10-31T00:49:21;95524.88;;;16.81;51.35
5380;BME280;2713;42.680;23.310;2022-10-31T00:51:48;95532.34;;;16.84;51.44
5380;BME280;2713;42.680;23.310;2022-10-31T00:54:15;95520.66;;;16.73;51.00
5380;BME280;2713;42.680;23.310;2022-10-31T00:56:43;95533.81;;;16.67;51.60
5380;BME280;2713;42.680;23.310;2022-10-31T00:59:09;95528.94;;;16.70;51.77
5380;BME280;2713;42.680;23.310;2022-10-31T01:01:38;95537.22;;;16.81;51.49
5380;BME280;2713;42.680;23.310;2022-10-31T01:04:05;95537.78;;;16.89;51.31
5380;BME280;2713;42.680;23.310;2022-10-31T01:06:32;95536.59;;;16.92;51.00
5380;BME280;2713;42.680;23.310;2022-10-31T01:08:59;95533.16;;;16.91;50.88
5380;BME280;2713;42.680;23.310;2022-10-31T01:11:25;95528.09;;;16.90;51.15
5380;BME280;2713;42.680;23.310;2022-10-31T01:13:53;95529.06;;;16.95;51.02
5380;BME280;2713;42.680;23.310;2022-10-31T01:16:22;95536.97;;;16.89;51.39
5380;BME280;2713;42.680;23.310;2022-10-31T01:18:51;95524.66;;;16.83;50.81
5380;BME280;2713;42.680;23.310;2022-10-31T01:21:20;95529.47;;;16.92;51.19
5380;BME280;2713;42.680;23.310;2022-10-31T01:23:48;95549.88;;;16.97;51.04
5380;BME280;2713;42.680;23.310;2022-10-31T01:26:17;95540.41;;;16.83;51.68
5380;BME280;2713;42.680;23.310;2022-10-31T01:28:47;95547.06;;;16.85;51.60
5380;BME280;2713;42.680;23.310;2022-10-31T01:31:15;95544.09;;;16.68;51.60
5380;BME280;2713;42.680;23.310;2022-10-31T01:33:43;95548.34;;;16.69;52.05
5380;BME280;2713;42.680;23.310;2022-10-31T01:36:17;95543.28;;;16.61;52.40
5380;BME280;2713;42.680;23.310;2022-10-31T01:38:45;95552.19;;;16.60;52.24
5380;BME280;2713;42.680;23.310;2022-10-31T01:41:13;95544.09;;;16.62;52.29
5380;BME280;2713;42.680;23.310;2022-10-31T01:43:47;95548.75;;;16.66;52.70
5380;BME280;2713;42.680;23.310;2022-10-31T01:46:16;95541.28;;;16.63;53.06
5380;BME280;2713;42.680;23.310;2022-10-31T01:48:44;95551.75;;;16.83;52.69
5380;BME280;2713;42.680;23.310;2022-10-31T01:51:12;95546.88;;;16.87;52.52
5380;BME280;2713;42.680;23.310;2022-10-31T01:53:43;95543.66;;;16.91;52.63
5380;BME280;2713;42.680;23.310;2022-10-31T01:56:10;95554.09;;;17.04;52.30
5380;BME280;2713;42.680;23.310;2022-10-31T01:58:38;95555.75;;;16.92;52.71
5380;BME280;2713;42.680;23.310;2022-10-31T02:01:05;95554.16;;;16.91;52.99
5380;BME280;2713;42.680;23.310;2022-10-31T02:03:32;95554.34;;;16.90;52.80
5380;BME280;2713;42.680;23.310;2022-10-31T02:06:00;95544.47;;;16.92;52.94
5380;BME280;2713;42.680;23.310;2022-10-31T02:08:28;95540.41;;;16.89;53.08
5380;BME280;2713;42.680;23.310;2022-10-31T02:10:57;95531.50;;;16.97;53.11
5380;BME280;2713;42.680;23.310;2022-10-31T02:13:27;95536.34;;;16.93;53.54
5380;BME280;2713;42.680;23.310;2022-10-31T02:15:57;95535.34;;;16.94;53.48
5380;BME280;2713;42.680;23.310;2022-10-31T02:18:26;95532.16;;;16.72;53.97
5380;BME280;2713;42.680;23.310;2022-10-31T02:21:02;95538.03;;;16.61;54.73
5380;BME280;2713;42.680;23.310;2022-10-31T02:23:51;95534.00;;;16.59;54.94
5380;BME280;2713;42.680;23.310;2022-10-31T02:26:47;95548.75;;;16.60;55.08
5380;BME280;2713;42.680;23.310;2022-10-31T02:32:27;95547.53;;;16.69;55.27
5380;BME280;2713;42.680;23.310;2022-10-31T02:35:01;95560.25;;;16.59;55.57
5380;BME280;2713;42.680;23.310;2022-10-31T02:37:37;95562.25;;;16.77;55.32
5380;BME280;2713;42.680;23.310;2022-10-31T02:40:12;95562.63;;;16.87;55.19
5380;BME280;2713;42.680;23.310;2022-10-31T02:43:06;95559.22;;;16.80;54.97
5380;BME280;2713;42.680;23.310;2022-10-31T02:45:40;95568.91;;;16.53;54.87
5380;BME280;2713;42.680;23.310;2022-10-31T02:48:15;95579.22;;;16.35;55.43
5380;BME280;2713;42.680;23.310;2022-10-31T02:50:48;95573.56;;;16.18;55.56
5380;BME280;2713;42.680;23.310;2022-10-31T02:53:17;95575.38;;;16.11;55.96
5380;BME280;2713;42.680;23.310;2022-10-31T02:55:58;95581.63;;;16.10;55.70
5380;BME280;2713;42.680;23.310;2022-10-31T02:58:30;95572.16;;;16.02;55.47
5380;BME280;2713;42.680;23.310;2022-10-31T03:01:13;95577.97;;;15.98;55.75
5380;BME280;2713;42.680;23.310;2022-10-31T03:03:57;95584.03;;;15.85;56.11
5380;BME280;2713;42.680;23.310;2022-10-31T03:06:33;95584.03;;;15.92;55.85
5380;BME280;2713;42.680;23.310;2022-10-31T03:09:10;95584.19;;;15.70;56.38
5380;BME280;2713;42.680;23.310;2022-10-31T03:11:44;95577.16;;;15.84;56.14
5380;BME280;2713;42.680;23.310;2022-10-31T03:14:19;95576.75;;;15.87;56.26
5380;BME280;2713;42.680;23.310;2022-10-31T03:16:55;95582.00;;;16.00;55.75
5380;BME280;2713;42.680;23.310;2022-10-31T03:19:30;95576.16;;;15.92;56.24
5380;BME280;2713;42.680;23.310;2022-10-31T03:22:02;95574.94;;;15.94;56.33
5380;BME280;2713;42.680;23.310;2022-10-31T03:24:37;95584.03;;;16.05;56.06
5380;BME280;2713;42.680;23.310;2022-10-31T03:27:07;95580.38;;;15.93;56.07
5380;BME280;2713;42.680;23.310;2022-10-31T03:29:37;95583.03;;;16.06;55.59
5380;BME280;2713;42.680;23.310;2022-10-31T03:32:09;95588.28;;;16.06;56.22
5380;BME280;2713;42.680;23.310;2022-10-31T03:34:41;95587.25;;;16.13;56.07
5380;BME280;2713;42.680;23.310;2022-10-31T03:37:12;95586.03;;;16.03;55.86
5380;BME280;2713;42.680;23.310;2022-10-31T03:39:40;95599.19;;;16.16;56.23
5380;BME280;2713;42.680;23.310;2022-10-31T03:42:11;95592.72;;;16.12;56.06
5380;BME280;2713;42.680;23.310;2022-10-31T03:44:44;95592.91;;;16.17;56.10
5380;BME280;2713;42.680;23.310;2022-10-31T03:47:13;95607.03;;;16.03;56.33
5380;BME280;2713;42.680;23.310;2022-10-31T03:49:42;95605.44;;;16.02;56.91
5380;BME280;2713;42.680;23.310;2022-10-31T03:52:13;95604.41;;;16.03;56.64
5380;BME280;2713;42.680;23.310;2022-10-31T03:54:46;95604.22;;;16.04;56.52
5380;BME280;2713;42.680;23.310;2022-10-31T03:57:17;95612.66;;;16.00;57.38
5380;BME280;2713;42.680;23.310;2022-10-31T03:59:51;95607.63;;;15.98;56.93
5380;BME280;2713;42.680;23.310;2022-10-31T04:02:22;95614.66;;;15.78;57.38
5380;BME280;2713;42.680;23.310;2022-10-31T04:04:54;95611.22;;;15.84;57.38
5380;BME280;2713;42.680;23.310;2022-10-31T04:07:21;95619.09;;;15.78;57.58
5380;BME280;2713;42.680;23.310;2022-10-31T04:09:51;95618.69;;;15.81;58.14
5380;BME280;2713;42.680;23.310;2022-10-31T04:12:21;95615.41;;;15.72;58.45
5380;BME280;2713;42.680;23.310;2022-10-31T04:14:51;95629.16;;;15.74;58.13
5380;BME280;2713;42.680;23.310;2022-10-31T04:17:21;95621.03;;;15.62;58.67
5380;BME280;2713;42.680;23.310;2022-10-31T04:19:49;95615.59;;;15.57;58.99
5380;BME280;2713;42.680;23.310;2022-10-31T04:22:18;95623.25;;;15.65;58.77
5380;BME280;2713;42.680;23.310;2022-10-31T04:24:45;95628.34;;;15.80;58.61
5380;BME280;2713;42.680;23.310;2022-10-31T04:27:14;95625.50;;;15.68;58.95
5380;BME280;2713;42.680;23.310;2022-10-31T04:29:41;95622.69;;;15.77;58.91
5380;BME280;2713;42.680;23.310;2022-10-31T04:32:07;95622.28;;;15.73;58.72
5380;BME280;2713;42.680;23.310;2022-10-31T04:34:34;95605.53;;;15.67;59.13
5380;BME280;2713;42.680;23.310;2022-10-31T04:37:01;95618.09;;;15.79;58.54
5380;BME280;2713;42.680;23.310;2022-10-31T04:39:29;95627.53;;;15.73;58.98
5380;BME280;2713;42.680;23.310;2022-10-31T04:42:17;95618.25;;;15.70;58.78
5380;BME280;2713;42.680;23.310;2022-10-31T04:44:43;95616.56;;;15.50;59.86
5380;BME280;2713;42.680;23.310;2022-10-31T04:47:10;95627.50;;;15.66;59.18
5380;BME280;2713;42.680;23.310;2022-10-31T04:49:37;95623.88;;;15.67;59.34
5380;BME280;2713;42.680;23.310;2022-10-31T04:52:04;95631.22;;;15.85;59.06
5380;BME280;2713;42.680;23.310;2022-10-31T04:54:33;95630.00;;;15.88;58.71
5380;BME280;2713;42.680;23.310;2022-10-31T04:57:27;95635.94;;;15.62;59.79
5380;BME280;2713;42.680;23.310;2022-10-31T04:59:54;95632.13;;;15.58;59.81
5380;BME280;2713;42.680;23.310;2022-10-31T05:02:22;95640.59;;;15.66;59.96
5380;BME280;2713;42.680;23.310;2022-10-31T05:04:54;95647.47;;;15.61;59.99
5380;BME280;2713;42.680;23.310;2022-10-31T05:07:21;95641.84;;;15.77;59.21
5380;BME280;2713;42.680;23.310;2022-10-31T05:09:49;95645.28;;;15.71;59.90
5380;BME280;2713;42.680;23.310;2022-10-31T05:12:18;95647.88;;;15.64;59.53
5380;BME280;2713;42.680;23.310;2022-10-31T05:15:11;95654.13;;;15.63;59.86
5380;BME280;2713;42.680;23.310;2022-10-31T05:17:56;95658.00;;;15.74;59.95
5380;BME280;2713;42.680;23.310;2022-10-31T05:20:58;95660.22;;;15.77;59.90
5380;BME280;2713;42.680;23.310;2022-10-31T05:23:33;95662.88;;;15.90;59.18
5380;BME280;2713;42.680;23.310;2022-10-31T05:26:02;95663.63;;;15.71;59.95
5380;BME280;2713;42.680;23.310;2022-10-31T05:28:29;95658.22;;;15.86;59.31
5380;BME280;2713;42.680;23.310;2022-10-31T05:30:56;95655.75;;;15.64;59.38
5380;BME280;2713;42.680;23.310;2022-10-31T05:33:23;95669.25;;;15.68;59.85
5380;BME280;2713;42.680;23.310;2022-10-31T05:36:09;95678.75;;;15.76;59.56
5380;BME280;2713;42.680;23.310;2022-10-31T05:38:47;95670.44;;;15.65;60.14
5380;BME280;2713;42.680;23.310;2022-10-31T05:41:25;95676.69;;;15.64;60.21
5380;BME280;2713;42.680;23.310;2022-10-31T05:43:59;95677.31;;;15.66;60.09
5380;BME280;2713;42.680;23.310;2022-10-31T05:46:28;95684.59;;;15.71;60.19
5380;BME280;2713;42.680;23.310;2022-10-31T05:49:18;95684.16;;;15.61;60.36
5380;BME280;2713;42.680;23.310;2022-10-31T05:51:58;95673.63;;;15.54;60.92
5380;BME280;2713;42.680;23.310;2022-10-31T05:54:33;95681.72;;;15.66;60.31
5380;BME280;2713;42.680;23.310;2022-10-31T05:57:01;95677.91;;;15.68;60.14
5380;BME280;2713;42.680;23.310;2022-10-31T05:59:28;95675.47;;;15.60;60.26
5380;BME280;2713;42.680;23.310;2022-10-31T06:01:56;95684.69;;;15.50;60.99
5380;BME280;2713;42.680;23.310;2022-10-31T06:04:42;95694.13;;;15.44;60.54
5380;BME280;2713;42.680;23.310;2022-10-31T06:07:11;95694.13;;;15.44;60.96
5380;BME280;2713;42.680;23.310;2022-10-31T06:09:38;95698.59;;;15.50;60.72
5380;BME280;2713;42.680;23.310;2022-10-31T06:12:07;95700.28;;;15.64;60.24
5380;BME280;2713;42.680;23.310;2022-10-31T06:14:52;95703.22;;;15.48;61.20
5380;BME280;2713;42.680;23.310;2022-10-31T06:17:19;95710.44;;;15.46;61.08
5380;BME280;2713;42.680;23.310;2022-10-31T06:19:46;95700.53;;;15.42;61.31
5380;BME280;2713;42.680;23.310;2022-10-31T06:22:18;95714.19;;;15.31;61.61
5380;BME280;2713;42.680;23.310;2022-10-31T06:24:45;95718.06;;;15.41;61.40
5380;BME280;2713;42.680;23.310;2022-10-31T06:27:40;95726.13;;;15.40;61.63
5380;BME280;2713;42.680;23.310;2022-10-31T06:30:13;95723.72;;;15.45;60.77
5380;BME280;2713;42.680;23.310;2022-10-31T06:32:40;95732.28;;;15.53;61.14
5380;BME280;2713;42.680;23.310;2022-10-31T06:35:08;95733.84;;;15.20;61.83
5380;BME280;2713;42.680;23.310;2022-10-31T06:37:36;95714.28;;;15.16;61.65
5380;BME280;2713;42.680;23.310;2022-10-31T06:40:16;95735.84;;;15.18;62.02
5380;BME280;2713;42.680;23.310;2022-10-31T06:43:12;95735.31;;;15.29;61.49
5380;BME280;2713;42.680;23.310;2022-10-31T06:45:40;95733.59;;;15.43;60.95
5380;BME280;2713;42.680;23.310;2022-10-31T06:48:26;95744.22;;;15.35;60.62
5380;BME280;2713;42.680;23.310;2022-10-31T06:51:11;95742.69;;;15.47;60.48
5380;BME280;2713;42.680;23.310;2022-10-31T06:53:38;95733.00;;;15.41;60.67
5380;BME280;2713;42.680;23.310;2022-10-31T06:56:07;95734.53;;;15.35;60.93
5380;BME280;2713;42.680;23.310;2022-10-31T06:58:40;95729.50;;;15.61;60.24
5380;BME280;2713;42.680;23.310;2022-10-31T07:01:10;95739.59;;;15.64;60.17
5380;BME280;2713;42.680;23.310;2022-10-31T07:03:36;95742.19;;;15.99;62.31
5380;BME280;2713;42.680;23.310;2022-10-31T07:06:04;95726.00;;;15.89;59.81
5380;BME280;2713;42.680;23.310;2022-10-31T07:08:32;95745.88;;;16.17;59.15
5380;BME280;2713;42.680;23.310;2022-10-31T07:10:59;95746.09;;;16.16;59.30
5380;BME280;2713;42.680;23.310;2022-10-31T07:13:28;95745.44;;;16.07;59.54
5380;BME280;2713;42.680;23.310;2022-10-31T07:16:08;95744.28;;;16.23;58.98
5380;BME280;2713;42.680;23.310;2022-10-31T07:18:37;95742.28;;;16.32;58.79
5380;BME280;2713;42.680;23.310;2022-10-31T07:21:05;95733.22;;;16.47;58.27
5380;BME280;2713;42.680;23.310;2022-10-31T07:23:32;95732.31;;;16.81;58.18
5380;BME280;2713;42.680;23.310;2022-10-31T07:26:17;95725.41;;;17.19;56.92
5380;BME280;2713;42.680;23.310;2022-10-31T07:28:46;95716.69;;;17.58;56.07
5380;BME280;2713;42.680;23.310;2022-10-31T07:31:16;95713.41;;;17.76;55.16
5380;BME280;2713;42.680;23.310;2022-10-31T07:33:43;95720.28;;;18.28;54.23
5380;BME280;2713;42.680;23.310;2022-10-31T07:36:35;95719.13;;;18.87;52.51
5380;BME280;2713;42.680;23.310;2022-10-31T07:39:03;95715.63;;;18.93;52.06
5380;BME280;2713;42.680;23.310;2022-10-31T07:41:33;95719.78;;;19.07;51.71
5380;BME280;2713;42.680;23.310;2022-10-31T07:44:00;95719.75;;;19.32;51.49
5380;BME280;2713;42.680;23.310;2022-10-31T07:46:48;95713.97;;;19.23;51.30
5380;BME280;2713;42.680;23.310;2022-10-31T07:49:34;95719.31;;;19.41;51.15
5380;BME280;2713;42.680;23.310;2022-10-31T07:52:19;95715.66;;;19.60;50.83
5380;BME280;2713;42.680;23.310;2022-10-31T07:55:09;95711.13;;;19.86;50.16
5380;BME280;2713;42.680;23.310;2022-10-31T07:57:36;95713.16;;;20.02;49.61
5380;BME280;2713;42.680;23.310;2022-10-31T08:00:07;95716.22;;;20.17;49.28
5380;BME280;2713;42.680;23.310;2022-10-31T08:02:41;95713.19;;;20.32;49.10
5380;BME280;2713;42.680;23.310;2022-10-31T08:05:27;95690.84;;;20.34;48.27
5380;BME280;2713;42.680;23.310;2022-10-31T08:08:17;95713.53;;;20.53;48.32
5380;BME280;2713;42.680;23.310;2022-10-31T08:10:47;95700.44;;;20.58;48.34
5380;BME280;2713;42.680;23.310;2022-10-31T08:13:14;95711.69;;;20.65;47.73
5380;BME280;2713;42.680;23.310;2022-10-31T08:15:45;95711.97;;;20.75;48.02
5380;BME280;2713;42.680;23.310;2022-10-31T08:18:17;95696.84;;;20.94;47.26
5380;BME280;2713;42.680;23.310;2022-10-31T08:20:44;95710.09;;;21.06;47.07
5380;BME280;2713;42.680;23.310;2022-10-31T08:23:12;95705.97;;;21.10;46.72
5380;BME280;2713;42.680;23.310;2022-10-31T08:25:40;95714.66;;;20.99;47.02
5380;BME280;2713;42.680;23.310;2022-10-31T08:28:09;95701.47;;;21.10;46.94
5380;BME280;2713;42.680;23.310;2022-10-31T08:30:39;95710.91;;;21.18;46.59
5380;BME280;2713;42.680;23.310;2022-10-31T08:33:26;95694.16;;;21.12;46.50
5380;BME280;2713;42.680;23.310;2022-10-31T08:36:16;95704.84;;;21.29;46.61
5380;BME280;2713;42.680;23.310;2022-10-31T08:38:51;95699.56;;;21.29;46.51
5380;BME280;2713;42.680;23.310;2022-10-31T08:41:18;95704.38;;;21.32;46.54
5380;BME280;2713;42.680;23.310;2022-10-31T08:43:46;95690.31;;;21.08;47.00
5380;BME280;2713;42.680;23.310;2022-10-31T08:46:15;95701.91;;;21.07;47.37
5380;BME280;2713;42.680;23.310;2022-10-31T08:48:44;95704.00;;;21.17;47.33
5380;BME280;2713;42.680;23.310;2022-10-31T08:51:15;95699.84;;;21.09;47.15
5380;BME280;2713;42.680;23.310;2022-10-31T08:53:42;95703.75;;;21.07;47.27
5380;BME280;2713;42.680;23.310;2022-10-31T08:56:29;95692.72;;;20.98;47.56
5380;BME280;2713;42.680;23.310;2022-10-31T08:58:56;95701.22;;;20.89;47.82
5380;BME280;2713;42.680;23.310;2022-10-31T09:01:46;95679.28;;;20.47;48.70
5380;BME280;2713;42.680;23.310;2022-10-31T09:04:15;95703.34;;;20.39;49.76
5380;BME280;2713;42.680;23.310;2022-10-31T09:06:42;95697.25;;;20.38;49.37
5380;BME280;2713;42.680;23.310;2022-10-31T09:09:09;95697.28;;;20.20;49.80
5380;BME280;2713;42.680;23.310;2022-10-31T09:11:36;95700.38;;;20.17;50.24
5380;BME280;2713;42.680;23.310;2022-10-31T09:14:09;95700.03;;;19.95;50.28
5380;BME280;2713;42.680;23.310;2022-10-31T09:16:45;95697.03;;;19.92;51.00
5380;BME280;2713;42.680;23.310;2022-10-31T09:19:20;95693.81;;;19.90;51.17
5380;BME280;2713;42.680;23.310;2022-10-31T09:21:47;95684.66;;;19.74;51.75
5380;BME280;2713;42.680;23.310;2022-10-31T09:24:14;95690.22;;;19.84;51.54
5380;BME280;2713;42.680;23.310;2022-10-31T09:26:41;95692.19;;;19.89;51.41
5380;BME280;2713;42.680;23.310;2022-10-31T09:29:25;95682.53;;;19.83;51.96
5380;BME280;2713;42.680;23.310;2022-10-31T09:31:56;95681.13;;;19.80;51.98
5380;BME280;2713;42.680;23.310;2022-10-31T09:34:34;95681.66;;;19.89;51.70
5380;BME280;2713;42.680;23.310;2022-10-31T09:37:07;95687.28;;;19.92;51.06
5380;BME280;2713;42.680;23.310;2022-10-31T09:39:34;95691.97;;;19.90;51.13
5380;BME280;2713;42.680;23.310;2022-10-31T09:42:29;95685.19;;;19.83;51.78
5380;BME280;2713;42.680;23.310;2022-10-31T09:45:12;95677.31;;;19.76;51.77
5380;BME280;2713;42.680;23.310;2022-10-31T09:51:30;95677.47;;;19.99;51.41
5380;BME280;2713;42.680;23.310;2022-10-31T09:54:27;95685.13;;;20.01;51.15
5380;BME280;2713;42.680;23.310;2022-10-31T09:56:56;95672.31;;;20.04;51.13
5380;BME280;2713;42.680;23.310;2022-10-31T09:59:28;95666.94;;;20.11;50.76
5380;BME280;2713;42.680;23.310;2022-10-31T10:02:01;95663.13;;;20.07;50.94
5380;BME280;2713;42.680;23.310;2022-10-31T10:04:37;95661.00;;;20.15;50.70
5380;BME280;2713;42.680;23.310;2022-10-31T10:07:27;95663.34;;;20.23;50.52
5380;BME280;2713;42.680;23.310;2022-10-31T10:10:18;95663.19;;;20.37;50.05
5380;BME280;2713;42.680;23.310;2022-10-31T10:13:36;95653.53;;;20.42;49.85
5380;BME280;2713;42.680;23.310;2022-10-31T10:16:24;95619.31;;;20.17;50.02
5380;BME280;2713;42.680;23.310;2022-10-31T10:19:10;95652.28;;;20.45;49.34
5380;BME280;2713;42.680;23.310;2022-10-31T10:21:48;95642.31;;;20.47;49.16
5380;BME280;2713;42.680;23.310;2022-10-31T10:24:26;95645.31;;;20.62;49.75
5380;BME280;2713;42.680;23.310;2022-10-31T10:27:01;95642.19;;;20.53;48.22
5380;BME280;2713;42.680;23.310;2022-10-31T10:29:36;95631.06;;;20.63;47.78
5380;BME280;2713;42.680;23.310;2022-10-31T10:32:12;95637.41;;;20.73;47.85
5380;BME280;2713;42.680;23.310;2022-10-31T10:34:44;95631.66;;;20.77;47.70
5380;BME280;2713;42.680;23.310;2022-10-31T10:37:20;95628.00;;;20.78;50.39
5380;BME280;2713;42.680;23.310;2022-10-31T10:39:55;95602.38;;;20.78;53.76
5380;BME280;2713;42.680;23.310;2022-10-31T10:42:24;95613.97;;;21.00;57.18
5380;BME280;2713;42.680;23.310;2022-10-31T10:45:14;95611.69;;;21.04;52.35
5380;BME280;2713;42.680;23.310;2022-10-31T10:48:06;95614.31;;;21.04;49.40
5380;BME280;2713;42.680;23.310;2022-10-31T10:50:40;95616.66;;;21.12;50.15
5380;BME280;2713;42.680;23.310;2022-10-31T10:53:21;95606.66;;;21.14;48.02
5380;BME280;2713;42.680;23.310;2022-10-31T10:56:09;95609.03;;;21.27;47.86
5380;BME280;2713;42.680;23.310;2022-10-31T10:58:38;95613.84;;;21.42;48.09
5380;BME280;2713;42.680;23.310;2022-10-31T11:01:10;95604.78;;;21.38;48.63
5380;BME280;2713;42.680;23.310;2022-10-31T11:03:38;95603.97;;;21.37;47.11
5380;BME280;2713;42.680;23.310;2022-10-31T11:06:16;95613.03;;;21.53;46.11
5380;BME280;2713;42.680;23.310;2022-10-31T11:08:46;95613.31;;;21.68;45.44
5380;BME280;2713;42.680;23.310;2022-10-31T11:11:26;95610.88;;;21.90;45.51
5380;BME280;2713;42.680;23.310;2022-10-31T11:13:59;95597.69;;;22.06;44.59
5380;BME280;2713;42.680;23.310;2022-10-31T11:16:31;95594.69;;;22.31;45.90
5380;BME280;2713;42.680;23.310;2022-10-31T11:19:16;95594.00;;;22.52;45.98
5380;BME280;2713;42.680;23.310;2022-10-31T11:21:47;95589.03;;;22.72;44.33
5380;BME280;2713;42.680;23.310;2022-10-31T11:24:16;95586.44;;;22.78;42.13
5380;BME280;2713;42.680;23.310;2022-10-31T11:26:47;95576.03;;;22.88;42.47
5380;BME280;2713;42.680;23.310;2022-10-31T11:29:17;95587.25;;;22.95;42.94
5380;BME280;2713;42.680;23.310;2022-10-31T11:31:47;95582.25;;;22.98;42.38
5380;BME280;2713;42.680;23.310;2022-10-31T11:34:26;95572.41;;;23.15;45.78
5380;BME280;2713;42.680;23.310;2022-10-31T11:37:12;95569.53;;;23.17;41.45
5380;BME280;2713;42.680;23.310;2022-10-31T11:39:41;95575.19;;;23.25;45.65
5380;BME280;2713;42.680;23.310;2022-10-31T11:42:11;95567.88;;;23.11;42.17
5380;BME280;2713;42.680;23.310;2022-10-31T11:44:41;95557.19;;;23.06;41.34
5380;BME280;2713;42.680;23.310;2022-10-31T11:47:13;95556.91;;;23.24;45.10
5380;BME280;2713;42.680;23.310;2022-10-31T11:49:42;95561.78;;;23.32;43.16
5380;BME280;2713;42.680;23.310;2022-10-31T11:52:15;95568.00;;;23.21;41.20
5380;BME280;2713;42.680;23.310;2022-10-31T11:54:46;95549.31;;;23.11;41.34
5380;BME280;2713;42.680;23.310;2022-10-31T11:57:33;95553.13;;;23.20;41.33
5380;BME280;2713;42.680;23.310;2022-10-31T12:00:27;95547.19;;;23.13;41.17
5380;BME280;2713;42.680;23.310;2022-10-31T12:03:10;95547.50;;;23.16;40.72
5380;BME280;2713;42.680;23.310;2022-10-31T12:05:39;95544.00;;;23.11;40.83
5380;BME280;2713;42.680;23.310;2022-10-31T12:08:09;95544.22;;;23.09;40.75
5380;BME280;2713;42.680;23.310;2022-10-31T12:10:44;95545.13;;;23.15;40.78
5380;BME280;2713;42.680;23.310;2022-10-31T12:13:29;95542.16;;;23.11;41.45
5380;BME280;2713;42.680;23.310;2022-10-31T12:16:02;95538.31;;;23.24;40.66
5380;BME280;2713;42.680;23.310;2022-10-31T12:18:58;95537.59;;;23.29;40.66
5380;BME280;2713;42.680;23.310;2022-10-31T12:21:57;95535.38;;;23.20;40.74
5380;BME280;2713;42.680;23.310;2022-10-31T12:27:34;95542.28;;;23.21;40.33
5380;BME280;2713;42.680;23.310;2022-10-31T12:30:17;95544.84;;;23.16;40.54
5380;BME280;2713;42.680;23.310;2022-10-31T12:33:03;95539.19;;;23.08;40.36
5380;BME280;2713;42.680;23.310;2022-10-31T12:35:47;95525.84;;;23.03;40.85
5380;BME280;2713;42.680;23.310;2022-10-31T12:38:37;95539.66;;;23.05;40.90
5380;BME280;2713;42.680;23.310;2022-10-31T12:41:23;95535.47;;;23.09;40.78
5380;BME280;2713;42.680;23.310;2022-10-31T12:44:04;95530.16;;;23.09;40.89
5380;BME280;2713;42.680;23.310;2022-10-31T12:46:48;95538.28;;;23.02;41.13
5380;BME280;2713;42.680;23.310;2022-10-31T12:49:32;95540.00;;;22.92;41.50
5380;BME280;2713;42.680;23.310;2022-10-31T12:52:16;95533.59;;;22.88;41.74
5380;BME280;2713;42.680;23.310;2022-10-31T12:54:59;95540.94;;;22.81;41.53
5380;BME280;2713;42.680;23.310;2022-10-31T12:57:33;95538.13;;;22.70;41.35
5380;BME280;2713;42.680;23.310;2022-10-31T13:00:07;95539.78;;;22.60;41.79
5380;BME280;2713;42.680;23.310;2022-10-31T13:02:48;95531.22;;;22.53;42.22
5380;BME280;2713;42.680;23.310;2022-10-31T13:05:22;95536.06;;;22.61;41.92
5380;BME280;2713;42.680;23.310;2022-10-31T13:07:57;95536.56;;;22.74;41.88
5380;BME280;2713;42.680;23.310;2022-10-31T13:10:27;95545.59;;;22.73;41.70
5380;BME280;2713;42.680;23.310;2022-10-31T13:13:02;95535.47;;;22.70;41.86
5380;BME280;2713;42.680;23.310;2022-10-31T13:15:33;95535.78;;;22.74;42.12
5380;BME280;2713;42.680;23.310;2022-10-31T13:18:09;95536.03;;;22.72;42.11
5380;BME280;2713;42.680;23.310;2022-10-31T13:20:41;95534.72;;;22.75;42.08
5380;BME280;2713;42.680;23.310;2022-10-31T13:23:14;95526.06;;;22.63;42.05
5380;BME280;2713;42.680;23.310;2022-10-31T13:25:46;95530.41;;;22.69;42.25
5380;BME280;2713;42.680;23.310;2022-10-31T13:28:24;95527.19;;;22.84;41.52
5380;BME280;2713;42.680;23.310;2022-10-31T13:30:53;95525.03;;;22.81;41.28
5380;BME280;2713;42.680;23.310;2022-10-31T13:33:25;95533.34;;;22.89;41.27
5380;BME280;2713;42.680;23.310;2022-10-31T13:36:05;95514.28;;;22.70;41.43
5380;BME280;2713;42.680;23.310;2022-10-31T13:38:38;95532.56;;;22.72;41.69
5380;BME280;2713;42.680;23.310;2022-10-31T13:41:21;95524.13;;;22.75;41.76
5380;BME280;2713;42.680;23.310;2022-10-31T13:44:00;95525.47;;;22.78;41.45
5380;BME280;2713;42.680;23.310;2022-10-31T13:46:37;95527.28;;;22.72;41.22
5380;BME280;2713;42.680;23.310;2022-10-31T13:49:23;95529.06;;;22.66;41.24
5380;BME280;2713;42.680;23.310;2022-10-31T13:51:51;95521.56;;;22.63;41.27
5380;BME280;2713;42.680;23.310;2022-10-31T13:54:23;95532.94;;;22.64;41.27